Leivasy, West Virginia
Current Conditions -  °F | °C
As of 2:55 AM on Thursday 23 Oct 2014 (Local Time) from KLWB Reporting Station
Overcast Overcast  
Wind Chill: 43°   Ceiling: 1400
Heat Index: 45°   Visibility: 10mi
Dew Point: 39°   Wind: 5mph
Humidity: 79%   Direction: 350°N
Pressure: 30.11"   Gusts: NA
Location:  38.16°N, 80.69°W
Report Text: KLWB 230655Z AUTO 35004KT 10SM OVC014 07/04 A3011 RMK AO2 T00720037
Loading
Personal Weather Stations






























Interactive Weather Map
Tropical Storm Tracking
New forecast layout! Learn more

10-Day Weather Forecast

Advertisements
Track Severe Weather on mobile